createdAt,value
2019-03-13T00:00:03.902Z,99701.27
2019-03-13T00:00:35.103Z,99702.97
2019-03-13T00:01:06.302Z,99699.98
2019-03-13T00:01:37.498Z,99702.56
2019-03-13T00:02:08.701Z,99698.69
2019-03-13T00:02:39.932Z,99699.98
2019-03-13T00:03:11.131Z,99702.97
2019-03-13T00:03:42.329Z,99699.53
2019-03-13T00:04:13.530Z,99702.98
2019-03-13T00:04:44.732Z,99703.40
2019-03-13T00:05:15.939Z,99699.53
2019-03-13T00:05:47.142Z,99702.13
2019-03-13T00:06:18.357Z,99705.13
2019-03-13T00:06:49.611Z,99702.13
2019-03-13T00:07:20.831Z,99702.56
2019-03-13T00:07:52.032Z,99701.25
2019-03-13T00:08:23.278Z,99706.41
2019-03-13T00:08:54.481Z,99705.11
2019-03-13T00:09:25.705Z,99705.53
2019-03-13T00:09:56.896Z,99701.66
2019-03-13T00:10:28.113Z,99697.80
2019-03-13T00:10:59.302Z,99703.84
2019-03-13T00:11:30.534Z,99699.08
2019-03-13T00:12:01.767Z,99697.36
2019-03-13T00:12:32.958Z,99701.67
2019-03-13T00:13:04.156Z,99700.39
2019-03-13T00:13:35.358Z,99694.36
2019-03-13T00:14:06.598Z,99700.82
2019-03-13T00:14:37.814Z,99697.38
2019-03-13T00:15:09.016Z,99693.52
2019-03-13T00:15:40.215Z,99694.78
2019-03-13T00:16:11.463Z,99692.20
2019-03-13T00:16:42.666Z,99690.91
2019-03-13T00:17:13.868Z,99693.05
2019-03-13T00:17:45.062Z,99692.17
2019-03-13T00:18:16.266Z,99688.73
2019-03-13T00:18:47.496Z,99689.17
2019-03-13T00:19:18.703Z,99689.61
2019-03-13T00:19:49.924Z,99695.64
2019-03-13T00:20:21.181Z,99687.89
2019-03-13T00:20:52.392Z,99690.89
2019-03-13T00:21:23.605Z,99690.47
2019-03-13T00:21:54.806Z,99689.17
2019-03-13T00:22:26.018Z,99685.28
2019-03-13T00:22:57.253Z,99690.01
2019-03-13T00:23:28.445Z,99687.00
2019-03-13T00:23:59.712Z,99686.16
2019-03-13T00:24:30.917Z,99686.59
2019-03-13T00:25:02.141Z,99684.85
2019-03-13T00:25:33.334Z,99680.13
2019-03-13T00:26:04.529Z,99680.55
2019-03-13T00:26:35.727Z,99679.27
2019-03-13T00:27:06.935Z,99686.14
2019-03-13T00:27:38.159Z,99683.11
2019-03-13T00:28:09.322Z,99688.29
2019-03-13T00:28:40.514Z,99682.69
2019-03-13T00:29:11.750Z,99680.98
2019-03-13T00:29:42.954Z,99680.98
2019-03-13T00:30:14.167Z,99680.53
2019-03-13T00:30:45.374Z,99680.11
2019-03-13T00:31:16.619Z,99679.66
2019-03-13T00:31:47.826Z,99679.25
2019-03-13T00:32:19.050Z,99677.96
2019-03-13T00:32:50.257Z,99671.91
2019-03-13T00:33:21.458Z,99677.96
2019-03-13T00:33:52.679Z,99675.39
2019-03-13T00:34:23.862Z,99675.79
2019-03-13T00:34:55.056Z,99671.91
2019-03-13T00:35:26.257Z,99680.12
2019-03-13T00:35:57.501Z,99677.08
2019-03-13T00:36:28.771Z,99675.38
2019-03-13T00:36:59.927Z,99674.93
2019-03-13T00:37:31.129Z,99670.62
2019-03-13T00:38:02.334Z,99673.22
2019-03-13T00:38:33.529Z,99668.92
2019-03-13T00:39:04.768Z,99674.94
2019-03-13T00:39:35.974Z,99675.79
2019-03-13T00:40:07.165Z,99677.09
2019-03-13T00:40:38.401Z,99676.23
2019-03-13T00:41:09.613Z,99674.51
2019-03-13T00:41:40.855Z,99676.66
2019-03-13T00:42:12.051Z,99676.26
2019-03-13T00:42:43.240Z,99680.97
2019-03-13T00:43:14.437Z,99680.98
2019-03-13T00:43:45.635Z,99674.97
2019-03-13T00:44:16.859Z,99677.97
2019-03-13T00:44:48.074Z,99674.95
2019-03-13T00:45:19.441Z,99676.25
2019-03-13T00:45:50.649Z,99677.12
2019-03-13T00:46:21.868Z,99680.13
2019-03-13T00:46:53.090Z,99677.52
2019-03-13T00:47:24.292Z,99677.52
2019-03-13T00:47:55.500Z,99674.95
2019-03-13T00:48:26.693Z,99677.54
2019-03-13T00:48:57.887Z,99671.52
2019-03-13T00:49:29.100Z,99677.09
2019-03-13T00:50:00.401Z,99672.34
2019-03-13T00:50:31.629Z,99676.64
2019-03-13T00:51:02.820Z,99670.62
2019-03-13T00:51:36.822Z,99668.47
2019-03-13T00:52:06.955Z,99672.32
2019-03-13T00:52:38.206Z,99674.88
2019-03-13T00:53:09.463Z,99672.72
2019-03-13T00:53:40.663Z,99676.16
2019-03-13T00:54:11.873Z,99680.84
2019-03-13T00:54:43.079Z,99676.56
2019-03-13T00:55:14.294Z,99680.84
2019-03-13T00:55:45.567Z,99678.27
2019-03-13T00:56:16.759Z,99674.83
2019-03-13T00:56:47.969Z,99677.39
2019-03-13T00:57:19.183Z,99676.54
2019-03-13T00:57:50.369Z,99678.24
2019-03-13T00:58:21.597Z,99676.54
2019-03-13T00:58:52.801Z,99675.26
2019-03-13T00:59:24.003Z,99672.67
2019-03-13T00:59:55.210Z,99672.23
2019-03-13T01:00:26.396Z,99671.39
2019-03-13T01:00:57.635Z,99673.52
2019-03-13T01:01:28.848Z,99674.36
2019-03-13T01:02:00.050Z,99675.26
2019-03-13T01:02:31.260Z,99667.94
2019-03-13T01:03:02.476Z,99668.80
2019-03-13T01:03:33.670Z,99674.39
2019-03-13T01:04:04.958Z,99676.12
2019-03-13T01:04:36.213Z,99670.97
2019-03-13T01:05:07.399Z,99669.23
2019-03-13T01:05:38.597Z,99671.80
2019-03-13T01:06:09.781Z,99664.48
2019-03-13T01:06:41.013Z,99667.48
2019-03-13T01:07:12.214Z,99666.63
2019-03-13T01:07:43.430Z,99668.34
2019-03-13T01:08:14.614Z,99667.05
2019-03-13T01:08:45.816Z,99668.35
2019-03-13T01:09:17.031Z,99665.78
2019-03-13T01:09:48.266Z,99667.09
2019-03-13T01:10:19.462Z,99666.64
2019-03-13T01:10:50.672Z,99664.95
2019-03-13T01:11:21.868Z,99667.08
2019-03-13T01:11:53.073Z,99663.21
2019-03-13T01:12:24.272Z,99663.64
2019-03-13T01:12:55.465Z,99667.98
2019-03-13T01:13:26.653Z,99662.81
2019-03-13T01:13:57.848Z,99662.81
2019-03-13T01:14:29.082Z,99661.51
2019-03-13T01:15:00.489Z,99663.25
2019-03-13T01:15:31.690Z,99662.81
2019-03-13T01:16:02.891Z,99664.97
2019-03-13T01:16:34.093Z,99664.53
2019-03-13T01:17:05.294Z,99664.53
2019-03-13T01:17:38.785Z,99663.24
2019-03-13T01:18:09.407Z,99655.50
2019-03-13T01:18:40.704Z,99658.96
2019-03-13T01:19:11.904Z,99662.41
2019-03-13T01:19:43.107Z,99658.09
2019-03-13T01:20:14.302Z,99660.26
2019-03-13T01:20:45.508Z,99658.55
2019-03-13T01:21:16.725Z,99660.27
2019-03-13T01:21:47.908Z,99661.12
2019-03-13T01:22:19.163Z,99659.42
2019-03-13T01:22:50.370Z,99661.12
2019-03-13T01:23:21.567Z,99662.44
2019-03-13T01:23:52.767Z,99659.41
2019-03-13T01:24:23.960Z,99663.73
2019-03-13T01:24:55.152Z,99657.70
2019-03-13T01:25:26.340Z,99653.84
2019-03-13T01:25:57.547Z,99654.73
2019-03-13T01:26:28.815Z,99656.44
2019-03-13T01:27:00.002Z,99656.02
2019-03-13T01:27:31.202Z,99653.89
2019-03-13T01:28:02.400Z,99652.59
2019-03-13T01:28:33.608Z,99656.48
2019-03-13T01:29:04.882Z,99649.16
2019-03-13T01:29:36.527Z,99644.86
2019-03-13T01:30:07.733Z,99652.61
2019-03-13T01:30:38.945Z,99650.45
2019-03-13T01:31:10.187Z,99648.77
2019-03-13T01:31:41.399Z,99649.64
2019-03-13T01:32:12.604Z,99650.47
2019-03-13T01:32:43.818Z,99643.59
2019-03-13T01:33:15.013Z,99648.76
2019-03-13T01:33:46.255Z,99645.33
2019-03-13T01:34:17.480Z,99642.76
2019-03-13T01:34:48.684Z,99646.63
2019-03-13T01:35:19.907Z,99636.73
2019-03-13T01:35:51.108Z,99644.03
2019-03-13T01:36:22.311Z,99644.89
2019-03-13T01:36:53.546Z,99641.47
2019-03-13T01:37:24.748Z,99646.19
2019-03-13T01:37:58.207Z,99638.89
2019-03-13T01:38:29.412Z,99643.61
2019-03-13T01:39:00.624Z,99644.91
2019-03-13T01:39:31.826Z,99649.66
2019-03-13T01:40:03.024Z,99645.77
2019-03-13T01:40:34.217Z,99648.37
2019-03-13T01:41:05.418Z,99644.49
2019-03-13T01:41:36.611Z,99644.49
2019-03-13T01:42:07.815Z,99646.19
2019-03-13T01:42:39.060Z,99639.32
2019-03-13T01:43:10.296Z,99644.48
2019-03-13T01:43:41.512Z,99645.78
2019-03-13T01:44:12.730Z,99643.18
2019-03-13T01:44:43.984Z,99643.61
2019-03-13T01:45:15.163Z,99644.91
2019-03-13T01:45:46.363Z,99642.76
2019-03-13T01:46:17.568Z,99651.80
2019-03-13T01:46:48.777Z,99642.34
2019-03-13T01:47:20.025Z,99646.62
2019-03-13T01:47:51.280Z,99647.52
2019-03-13T01:48:22.479Z,99647.06
2019-03-13T01:48:53.672Z,99645.78
2019-03-13T01:49:24.874Z,99644.50
2019-03-13T01:49:56.067Z,99642.36
2019-03-13T01:50:27.266Z,99643.22
2019-03-13T01:50:58.463Z,99644.50
2019-03-13T01:51:29.673Z,99641.92
2019-03-13T01:52:00.875Z,99646.23
2019-03-13T01:52:32.409Z,99639.33
2019-03-13T01:53:03.682Z,99646.62
2019-03-13T01:53:34.892Z,99644.48
2019-03-13T01:54:06.107Z,99643.20
2019-03-13T01:54:37.314Z,99641.06
2019-03-13T01:55:08.555Z,99645.80
2019-03-13T01:55:39.764Z,99645.80
2019-03-13T01:56:10.971Z,99643.64
2019-03-13T01:56:42.184Z,99643.22
2019-03-13T01:57:13.452Z,99644.91
2019-03-13T01:57:44.654Z,99645.36
2019-03-13T01:58:15.864Z,99643.63
2019-03-13T01:58:47.056Z,99642.78
2019-03-13T01:59:18.266Z,99644.48
2019-03-13T01:59:49.470Z,99644.05
2019-03-13T02:00:20.684Z,99649.23
2019-03-13T02:00:51.870Z,99652.66
2019-03-13T02:01:23.124Z,99653.09
2019-03-13T02:01:54.339Z,99644.48
2019-03-13T02:02:25.545Z,99652.24
2019-03-13T02:02:56.812Z,99643.19
2019-03-13T02:03:28.027Z,99644.48
2019-03-13T02:03:59.228Z,99643.64
2019-03-13T02:04:30.438Z,99645.34
2019-03-13T02:05:01.656Z,99647.08
2019-03-13T02:05:32.849Z,99645.77
2019-03-13T02:06:04.065Z,99646.66
2019-03-13T02:06:35.275Z,99643.19
2019-03-13T02:07:06.489Z,99644.09
2019-03-13T02:07:37.685Z,99642.77
2019-03-13T02:08:08.898Z,99644.50
2019-03-13T02:08:40.097Z,99647.93
2019-03-13T02:09:11.303Z,99648.82
2019-03-13T02:09:42.517Z,99644.50
2019-03-13T02:10:13.758Z,99642.78
2019-03-13T02:10:45.011Z,99645.80
2019-03-13T02:11:16.215Z,99651.41
2019-03-13T02:11:47.430Z,99646.24
2019-03-13T02:12:18.643Z,99649.66
2019-03-13T02:12:49.844Z,99647.51
2019-03-13T02:13:21.050Z,99648.39
2019-03-13T02:13:52.303Z,99646.66
2019-03-13T02:14:23.547Z,99641.51
2019-03-13T02:14:54.747Z,99643.64
2019-03-13T02:15:25.950Z,99643.21
2019-03-13T02:15:57.153Z,99646.66
2019-03-13T02:16:28.347Z,99643.66
2019-03-13T02:16:59.555Z,99646.25
2019-03-13T02:17:30.822Z,99644.06
2019-03-13T02:18:02.025Z,99648.81
2019-03-13T02:18:33.218Z,99647.52
2019-03-13T02:19:04.414Z,99643.66
2019-03-13T02:19:35.614Z,99646.23
2019-03-13T02:20:06.812Z,99645.79
2019-03-13T02:20:38.027Z,99652.23
2019-03-13T02:21:09.228Z,99652.67
2019-03-13T02:21:40.424Z,99646.23
2019-03-13T02:22:11.636Z,99654.84
2019-03-13T02:22:42.872Z,99645.80
2019-03-13T02:23:14.070Z,99649.23
2019-03-13T02:23:45.275Z,99651.81
2019-03-13T02:24:16.515Z,99652.25
2019-03-13T02:24:47.730Z,99649.23
2019-03-13T02:25:18.932Z,99649.69
2019-03-13T02:25:50.145Z,99650.97
2019-03-13T02:26:21.362Z,99648.39
2019-03-13T02:26:52.760Z,99650.97
2019-03-13T02:27:23.958Z,99651.80
2019-03-13T02:27:55.174Z,99651.80
2019-03-13T02:28:26.372Z,99654.38
2019-03-13T02:28:57.574Z,99652.23
2019-03-13T02:29:28.805Z,99658.25
2019-03-13T02:30:00.021Z,99658.70
2019-03-13T02:30:31.243Z,99660.43
2019-03-13T02:31:02.452Z,99658.69
2019-03-13T02:31:33.638Z,99653.53
2019-03-13T02:32:04.846Z,99651.83
2019-03-13T02:32:36.054Z,99655.69
2019-03-13T02:33:07.313Z,99654.41
2019-03-13T02:33:38.526Z,99655.25
2019-03-13T02:34:09.728Z,99662.12
2019-03-13T02:34:40.967Z,99653.53
2019-03-13T02:35:12.243Z,99657.83
2019-03-13T02:35:43.452Z,99653.55
2019-03-13T02:36:14.650Z,99656.56
2019-03-13T02:36:45.861Z,99656.56
2019-03-13T02:37:17.120Z,99659.13
2019-03-13T02:37:48.333Z,99657.39
2019-03-13T02:38:19.534Z,99670.73
2019-03-13T02:38:50.725Z,99662.14
2019-03-13T02:39:21.952Z,99662.55
2019-03-13T02:39:53.154Z,99663.41
2019-03-13T02:40:24.373Z,99664.72
2019-03-13T02:40:55.589Z,99663.85
2019-03-13T02:41:26.799Z,99669.44
2019-03-13T02:41:58.024Z,99666.43
2019-03-13T02:42:29.302Z,99669.03
2019-03-13T02:43:00.495Z,99669.88
2019-03-13T02:43:31.702Z,99669.88
2019-03-13T02:44:02.939Z,99668.59
2019-03-13T02:44:34.213Z,99668.59
2019-03-13T02:45:05.470Z,99670.73
2019-03-13T02:45:36.727Z,99668.61
2019-03-13T02:46:07.943Z,99672.47
2019-03-13T02:46:39.125Z,99669.90
2019-03-13T02:47:10.344Z,99674.19
2019-03-13T02:47:41.555Z,99669.88
2019-03-13T02:48:12.783Z,99675.04
2019-03-13T02:48:44.008Z,99670.31
2019-03-13T02:49:15.192Z,99669.02
2019-03-13T02:49:46.392Z,99672.05
2019-03-13T02:50:17.633Z,99675.06
2019-03-13T02:50:48.843Z,99672.47
2019-03-13T02:51:20.059Z,99668.16
2019-03-13T02:51:51.447Z,99674.61
2019-03-13T02:52:22.656Z,99671.19
2019-03-13T02:52:53.847Z,99675.06
2019-03-13T02:53:25.056Z,99678.05
2019-03-13T02:53:56.263Z,99674.63
2019-03-13T02:54:28.583Z,99676.34
2019-03-13T02:54:59.770Z,99677.63
2019-03-13T02:55:30.985Z,99681.48
2019-03-13T02:56:02.191Z,99672.87
2019-03-13T02:56:33.418Z,99674.18
2019-03-13T02:57:04.603Z,99677.17
2019-03-13T02:57:35.804Z,99678.48
2019-03-13T02:58:07.045Z,99679.33
2019-03-13T02:58:38.271Z,99678.48
2019-03-13T02:59:09.456Z,99677.62
2019-03-13T02:59:40.662Z,99675.89
2019-03-13T03:00:11.889Z,99677.16
2019-03-13T03:00:43.094Z,99681.47
2019-03-13T03:01:14.292Z,99678.46
2019-03-13T03:01:45.537Z,99678.44
2019-03-13T03:02:16.742Z,99679.73
2019-03-13T03:02:47.993Z,99680.17
2019-03-13T03:03:19.220Z,99686.19
2019-03-13T03:03:50.472Z,99682.31
2019-03-13T03:04:21.708Z,99684.45
2019-03-13T03:04:52.939Z,99692.22
2019-03-13T03:05:24.149Z,99684.89
2019-03-13T03:05:55.362Z,99690.89
2019-03-13T03:06:26.604Z,99683.59
2019-03-13T03:06:57.833Z,99688.74
2019-03-13T03:07:29.026Z,99690.45
2019-03-13T03:08:00.232Z,99691.33
2019-03-13T03:08:31.422Z,99690.04
2019-03-13T03:09:02.629Z,99693.48
2019-03-13T03:09:33.866Z,99685.31
2019-03-13T03:10:05.089Z,99696.94
2019-03-13T03:10:36.291Z,99685.74
2019-03-13T03:11:07.479Z,99686.17
2019-03-13T03:11:38.733Z,99684.48
2019-03-13T03:12:09.928Z,99684.05
2019-03-13T03:12:41.126Z,99680.16
2019-03-13T03:13:12.323Z,99687.02
2019-03-13T03:13:43.539Z,99681.44
2019-03-13T03:14:14.751Z,99683.14
2019-03-13T03:14:46.143Z,99686.16
2019-03-13T03:15:17.374Z,99682.30
2019-03-13T03:15:48.580Z,99686.58
2019-03-13T03:16:19.827Z,99692.17
2019-03-13T03:16:51.032Z,99690.86
2019-03-13T03:17:22.229Z,99691.28
2019-03-13T03:17:53.472Z,99689.58
2019-03-13T03:18:24.678Z,99692.59
2019-03-13T03:18:55.882Z,99696.02
2019-03-13T03:19:27.085Z,99700.73
2019-03-13T03:19:58.306Z,99703.30
2019-03-13T03:20:29.561Z,99703.75
2019-03-13T03:21:00.777Z,99702.45
2019-03-13T03:21:31.955Z,99699.88
2019-03-13T03:22:03.161Z,99702.05
2019-03-13T03:22:34.391Z,99699.03
2019-03-13T03:23:05.688Z,99700.31
2019-03-13T03:23:36.882Z,99697.33
2019-03-13T03:24:08.086Z,99697.73
2019-03-13T03:24:39.327Z,99699.03
2019-03-13T03:25:10.528Z,99693.87
2019-03-13T03:25:41.732Z,99694.74
2019-03-13T03:26:12.959Z,99698.61
2019-03-13T03:26:44.139Z,99697.31
2019-03-13T03:27:15.351Z,99695.61
2019-03-13T03:27:46.574Z,99700.77
2019-03-13T03:28:17.824Z,99697.78
2019-03-13T03:28:49.023Z,99694.31
2019-03-13T03:29:20.307Z,99698.64
2019-03-13T03:29:51.519Z,99696.06
2019-03-13T03:30:23.021Z,99699.95
2019-03-13T03:30:54.402Z,99694.36
2019-03-13T03:31:25.624Z,99698.22
2019-03-13T03:31:56.842Z,99693.50
2019-03-13T03:32:28.019Z,99694.78
2019-03-13T03:32:59.237Z,99693.08
2019-03-13T03:33:30.449Z,99693.06
2019-03-13T03:34:01.678Z,99695.62
2019-03-13T03:34:32.883Z,99694.34
2019-03-13T03:35:04.089Z,99691.33
2019-03-13T03:35:35.312Z,99690.91
2019-03-13T03:36:06.548Z,99691.34
2019-03-13T03:36:37.769Z,99697.36
2019-03-13T03:37:08.963Z,99696.06
2019-03-13T03:37:40.196Z,99694.78
2019-03-13T03:38:11.412Z,99690.05
2019-03-13T03:38:42.617Z,99693.06
2019-03-13T03:39:13.855Z,99693.95
2019-03-13T03:39:45.058Z,99696.50
2019-03-13T03:40:21.331Z,99699.92
2019-03-13T03:40:49.393Z,99698.20
2019-03-13T03:41:20.598Z,99692.59
2019-03-13T03:41:51.796Z,99696.45
2019-03-13T03:42:22.997Z,99699.86
2019-03-13T03:42:54.261Z,99697.70
2019-03-13T03:43:39.344Z,99704.14
2019-03-13T03:43:58.444Z,99708.45
2019-03-13T03:44:29.700Z,99704.61
2019-03-13T03:45:00.867Z,99708.47
2019-03-13T03:45:32.091Z,99707.18
2019-03-13T03:46:03.307Z,99711.05
2019-03-13T03:46:34.490Z,99712.33
2019-03-13T03:47:05.690Z,99705.89
2019-03-13T03:47:36.909Z,99710.17
2019-03-13T03:48:08.129Z,99710.56
2019-03-13T03:48:39.311Z,99710.56
2019-03-13T03:49:10.513Z,99709.72
2019-03-13T03:49:41.758Z,99708.42
2019-03-13T03:50:12.974Z,99708.42
2019-03-13T03:50:44.160Z,99707.98
2019-03-13T03:51:15.355Z,99701.55
2019-03-13T03:51:46.565Z,99704.53
2019-03-13T03:52:17.769Z,99703.66
2019-03-13T03:52:48.978Z,99697.64
2019-03-13T03:53:20.230Z,99701.91
2019-03-13T03:53:51.470Z,99699.78
2019-03-13T03:54:22.667Z,99701.06
2019-03-13T03:54:53.865Z,99697.20
2019-03-13T03:55:25.170Z,99707.53
2019-03-13T03:55:56.381Z,99703.23
2019-03-13T03:56:27.585Z,99701.53
2019-03-13T03:56:58.788Z,99703.25
2019-03-13T03:57:30.058Z,99712.27
2019-03-13T03:58:01.286Z,99704.54
2019-03-13T03:58:32.546Z,99708.43
2019-03-13T03:59:03.744Z,99714.02
2019-03-13T03:59:34.945Z,99720.45
2019-03-13T04:00:06.169Z,99715.30
2019-03-13T04:00:37.375Z,99719.19
2019-03-13T04:01:08.572Z,99715.34
2019-03-13T04:01:39.779Z,99716.66
2019-03-13T04:02:10.989Z,99711.48
2019-03-13T04:02:42.272Z,99720.97
2019-03-13T04:03:13.486Z,99716.25
2019-03-13T04:03:44.714Z,99718.39
2019-03-13T04:04:15.926Z,99716.25
2019-03-13T04:04:47.226Z,99716.69
2019-03-13T04:05:18.531Z,99721.40
2019-03-13T04:05:49.725Z,99713.26
2019-03-13T04:06:20.921Z,99715.39
2019-03-13T04:06:52.221Z,99717.56
2019-03-13T04:07:23.418Z,99717.99
2019-03-13T04:07:54.649Z,99716.27
2019-03-13T04:08:25.856Z,99714.98
2019-03-13T04:08:57.068Z,99716.70
2019-03-13T04:09:28.304Z,99719.71
2019-03-13T04:09:59.503Z,99712.82
2019-03-13T04:10:30.772Z,99715.41
2019-03-13T04:11:01.990Z,99708.52
2019-03-13T04:11:33.196Z,99712.81
2019-03-13T04:12:04.422Z,99708.95
2019-03-13T04:12:35.631Z,99703.78
2019-03-13T04:13:06.833Z,99706.75
2019-03-13T04:13:38.047Z,99704.59
2019-03-13T04:14:09.262Z,99704.59
2019-03-13T04:14:40.467Z,99704.19
2019-03-13T04:15:11.679Z,99714.47
2019-03-13T04:15:43.029Z,99709.73
2019-03-13T04:16:14.241Z,99710.19
2019-03-13T04:16:45.445Z,99709.78
2019-03-13T04:17:16.641Z,99712.37
2019-03-13T04:17:47.854Z,99713.66
2019-03-13T04:18:19.054Z,99723.13
2019-03-13T04:18:50.251Z,99722.25
2019-03-13T04:19:21.533Z,99713.67
2019-03-13T04:19:52.741Z,99718.82
2019-03-13T04:20:23.940Z,99717.97
2019-03-13T04:20:55.177Z,99717.12
2019-03-13T04:21:26.403Z,99717.55
2019-03-13T04:21:57.615Z,99717.98
2019-03-13T04:22:28.833Z,99722.28
2019-03-13T04:23:00.043Z,99717.56
2019-03-13T04:23:31.260Z,99718.84
2019-03-13T04:24:02.455Z,99719.70
2019-03-13T04:24:33.698Z,99721.02
2019-03-13T04:25:04.917Z,99718.84
2019-03-13T04:25:36.104Z,99717.56
2019-03-13T04:26:07.307Z,99726.58
2019-03-13T04:26:38.925Z,99724.02
2019-03-13T04:27:10.141Z,99721.44
2019-03-13T04:27:42.330Z,99720.15
2019-03-13T04:28:13.603Z,99724.02
2019-03-13T04:28:44.807Z,99724.87
2019-03-13T04:29:16.009Z,99727.45
2019-03-13T04:29:47.240Z,99727.89
2019-03-13T04:30:18.461Z,99723.13
2019-03-13T04:30:49.710Z,99721.44
2019-03-13T04:31:20.920Z,99722.72
2019-03-13T04:31:52.128Z,99726.58
2019-03-13T04:32:23.343Z,99722.28
2019-03-13T04:32:54.531Z,99726.61
2019-03-13T04:33:28.208Z,99730.91
2019-03-13T04:33:58.683Z,99732.63
2019-03-13T04:34:29.884Z,99735.20
2019-03-13T04:35:01.086Z,99730.91
2019-03-13T04:35:32.277Z,99732.66
2019-03-13T04:36:03.629Z,99732.66
2019-03-13T04:36:34.831Z,99733.50
2019-03-13T04:37:06.057Z,99727.92
2019-03-13T04:37:37.253Z,99732.66
2019-03-13T04:38:08.454Z,99734.81
2019-03-13T04:38:39.649Z,99728.38
2019-03-13T04:39:10.854Z,99728.36
2019-03-13T04:39:42.059Z,99733.53
2019-03-13T04:40:13.273Z,99729.22
2019-03-13T04:40:44.485Z,99725.79
2019-03-13T04:41:15.720Z,99724.50
2019-03-13T04:41:46.917Z,99730.08
2019-03-13T04:42:18.124Z,99727.08
2019-03-13T04:42:49.443Z,99731.38
2019-03-13T04:43:20.646Z,99728.34
2019-03-13T04:43:51.859Z,99726.64
2019-03-13T04:44:23.142Z,99727.08
2019-03-13T04:44:54.367Z,99729.22
2019-03-13T04:45:25.572Z,99727.92
2019-03-13T04:46:02.889Z,99729.19
2019-03-13T04:46:34.056Z,99729.17
2019-03-13T04:47:05.227Z,99728.75
2019-03-13T04:47:36.416Z,99729.17
2019-03-13T04:48:07.553Z,99726.14
2019-03-13T04:48:38.780Z,99728.29
2019-03-13T04:49:10.054Z,99723.98
2019-03-13T04:49:41.222Z,99727.41
2019-03-13T04:50:12.373Z,99722.26
2019-03-13T04:50:43.547Z,99726.97
2019-03-13T04:51:14.713Z,99723.11
2019-03-13T04:51:45.875Z,99722.67
2019-03-13T04:52:17.032Z,99720.95
2019-03-13T04:52:48.192Z,99722.27
2019-03-13T04:53:19.361Z,99723.98
2019-03-13T04:53:50.589Z,99717.96
2019-03-13T04:54:21.760Z,99714.50
2019-03-13T04:54:52.919Z,99723.97
2019-03-13T04:55:24.072Z,99716.64
2019-03-13T04:55:55.225Z,99718.80
2019-03-13T04:56:26.403Z,99718.80
2019-03-13T04:56:57.575Z,99721.78
2019-03-13T04:57:28.742Z,99722.22
2019-03-13T04:57:59.946Z,99725.21
2019-03-13T04:58:31.103Z,99728.23
2019-03-13T04:59:02.263Z,99722.20
2019-03-13T04:59:33.427Z,99726.51
2019-03-13T05:00:04.603Z,99732.53
2019-03-13T05:00:35.761Z,99733.41
2019-03-13T05:01:06.928Z,99729.55
2019-03-13T05:01:38.101Z,99723.92
2019-03-13T05:02:09.275Z,99723.08
2019-03-13T05:02:40.448Z,99730.80
2019-03-13T05:03:11.667Z,99725.65
2019-03-13T05:03:42.828Z,99726.53
2019-03-13T05:04:13.991Z,99729.95
2019-03-13T05:04:45.147Z,99726.51
2019-03-13T05:05:16.305Z,99724.78
2019-03-13T05:05:47.484Z,99725.64
2019-03-13T05:06:18.656Z,99726.48
2019-03-13T05:06:49.871Z,99727.77
2019-03-13T05:07:21.044Z,99725.20
2019-03-13T05:07:52.218Z,99731.20
2019-03-13T05:08:23.377Z,99727.33
2019-03-13T05:08:54.547Z,99724.76
2019-03-13T05:09:25.709Z,99726.48
2019-03-13T05:09:56.882Z,99726.89
2019-03-13T05:10:28.078Z,99726.90
2019-03-13T05:10:59.270Z,99729.06
2019-03-13T05:11:30.446Z,99730.77
2019-03-13T05:12:01.609Z,99728.63
2019-03-13T05:12:32.769Z,99730.33
2019-03-13T05:13:04.085Z,99739.75
2019-03-13T05:13:35.306Z,99732.47
2019-03-13T05:14:06.458Z,99731.17
2019-03-13T05:14:37.637Z,99734.22
2019-03-13T05:15:08.823Z,99734.23
2019-03-13T05:15:39.992Z,99731.70
2019-03-13T05:16:11.155Z,99734.29
2019-03-13T05:16:42.328Z,99735.61
2019-03-13T05:17:13.496Z,99732.59
2019-03-13T05:17:44.676Z,99731.30
2019-03-13T05:18:15.858Z,99729.59
2019-03-13T05:18:47.023Z,99730.00
2019-03-13T05:19:18.193Z,99723.59
2019-03-13T05:19:49.347Z,99728.73
2019-03-13T05:20:20.513Z,99728.30
2019-03-13T05:20:51.686Z,99733.03
2019-03-13T05:21:22.855Z,99729.59
2019-03-13T05:21:54.010Z,99727.45
2019-03-13T05:22:25.160Z,99725.73
2019-03-13T05:22:56.343Z,99729.61
2019-03-13T05:23:27.562Z,99729.15
2019-03-13T05:23:58.714Z,99730.42
2019-03-13T05:24:29.862Z,99728.70
2019-03-13T05:25:01.017Z,99733.86
2019-03-13T05:25:32.187Z,99738.16
2019-03-13T05:26:03.349Z,99737.72
2019-03-13T05:26:34.509Z,99728.70
2019-03-13T05:27:05.669Z,99734.73
2019-03-13T05:27:36.837Z,99738.61
2019-03-13T05:28:07.995Z,99742.48
2019-03-13T05:28:39.197Z,99741.20
2019-03-13T05:29:10.375Z,99742.50
2019-03-13T05:29:41.538Z,99742.09
2019-03-13T05:30:12.700Z,99745.09
2019-03-13T05:30:43.870Z,99743.81
2019-03-13T05:31:15.037Z,99741.23
2019-03-13T05:31:46.793Z,99739.93
2019-03-13T05:32:17.944Z,99737.34
2019-03-13T05:32:49.169Z,99739.43
2019-03-13T05:33:20.331Z,99740.27
2019-03-13T05:33:51.485Z,99742.82
2019-03-13T05:34:22.649Z,99736.38
2019-03-13T05:34:53.844Z,99744.49
2019-03-13T05:35:25.025Z,99739.75
2019-03-13T05:35:56.203Z,99738.47
2019-03-13T05:36:27.332Z,99743.66
2019-03-13T05:36:58.527Z,99741.58
2019-03-13T05:37:29.677Z,99742.86
2019-03-13T05:38:00.862Z,99743.30
2019-03-13T05:38:32.017Z,99744.58
2019-03-13T05:39:03.194Z,99742.46
2019-03-13T05:39:34.356Z,99743.77
2019-03-13T05:40:05.548Z,99749.34
2019-03-13T05:40:37.093Z,99747.66
2019-03-13T05:41:08.296Z,99752.38
2019-03-13T05:41:39.450Z,99745.48
2019-03-13T05:42:10.612Z,99752.36
2019-03-13T05:42:41.796Z,99751.95
2019-03-13T05:43:12.993Z,99753.22
2019-03-13T05:43:44.177Z,99756.66
2019-03-13T05:44:15.335Z,99756.66
2019-03-13T05:44:46.486Z,99759.21
2019-03-13T05:45:17.670Z,99757.47
2019-03-13T05:45:48.866Z,99762.63
2019-03-13T05:46:19.988Z,99759.62
2019-03-13T05:46:51.179Z,99757.04
2019-03-13T05:47:22.352Z,99758.77
2019-03-13T05:47:53.512Z,99761.34
2019-03-13T05:48:24.685Z,99763.48
2019-03-13T05:48:55.865Z,99765.20
2019-03-13T05:49:27.024Z,99762.65
2019-03-13T05:49:58.191Z,99762.64
2019-03-13T05:50:31.603Z,99760.94
2019-03-13T05:51:02.244Z,99760.09
2019-03-13T05:51:33.407Z,99769.98
2019-03-13T05:52:04.610Z,99766.11
2019-03-13T05:52:35.776Z,99766.14
2019-03-13T05:53:06.977Z,99764.03
2019-03-13T05:53:38.130Z,99759.74
2019-03-13T05:54:09.288Z,99767.92
2019-03-13T05:54:40.452Z,99762.31
2019-03-13T05:55:11.619Z,99759.30
2019-03-13T05:55:42.819Z,99758.44
2019-03-13T05:56:14.067Z,99760.58
2019-03-13T05:56:45.202Z,99767.49
2019-03-13T05:57:16.356Z,99765.33
2019-03-13T05:57:47.514Z,99768.75
2019-03-13T05:58:18.719Z,99764.91
2019-03-13T05:58:49.874Z,99757.61
2019-03-13T05:59:21.027Z,99764.48
2019-03-13T05:59:52.198Z,99762.33
2019-03-13T06:00:23.357Z,99764.47
2019-03-13T06:00:54.553Z,99763.18
2019-03-13T06:01:25.767Z,99764.48
2019-03-13T06:01:56.924Z,99767.92
2019-03-13T06:02:28.088Z,99769.22
2019-03-13T06:02:59.242Z,99769.67
2019-03-13T06:03:30.476Z,99765.36
2019-03-13T06:04:01.694Z,99764.50
2019-03-13T06:04:32.855Z,99774.40
2019-03-13T06:05:04.020Z,99767.92
2019-03-13T06:05:35.184Z,99771.81
2019-03-13T06:06:06.334Z,99765.75
2019-03-13T06:06:37.495Z,99770.91